sensor_id;sensor_type;location;lat;lon;timestamp;P1;durP1;ratioP1;P2;durP2;ratioP2
24713;SDS011;12820;51.580;5.010;2024-03-06T00:01:53;44.55;;;30.52;;
24713;SDS011;12820;51.580;5.010;2024-03-06T00:06:55;40.13;;;28.75;;
24713;SDS011;12820;51.580;5.010;2024-03-06T00:11:59;42.30;;;29.33;;
24713;SDS011;12820;51.580;5.010;2024-03-06T00:17:02;41.13;;;29.05;;
24713;SDS011;12820;51.580;5.010;2024-03-06T00:22:09;44.85;;;30.35;;
24713;SDS011;12820;51.580;5.010;2024-03-06T00:27:11;43.72;;;28.58;;
24713;SDS011;12820;51.580;5.010;2024-03-06T00:32:14;42.33;;;29.55;;
24713;SDS011;12820;51.580;5.010;2024-03-06T00:37:16;39.55;;;28.23;;
24713;SDS011;12820;51.580;5.010;2024-03-06T00:42:18;43.40;;;30.55;;
24713;SDS011;12820;51.580;5.010;2024-03-06T00:47:20;43.25;;;30.35;;
24713;SDS011;12820;51.580;5.010;2024-03-06T00:52:23;38.83;;;28.42;;
24713;SDS011;12820;51.580;5.010;2024-03-06T00:57:25;41.30;;;28.83;;
24713;SDS011;12820;51.580;5.010;2024-03-06T01:02:28;41.25;;;28.70;;
24713;SDS011;12820;51.580;5.010;2024-03-06T01:07:30;41.35;;;29.35;;
24713;SDS011;12820;51.580;5.010;2024-03-06T01:12:32;44.45;;;28.80;;
24713;SDS011;12820;51.580;5.010;2024-03-06T01:17:35;42.30;;;30.05;;
24713;SDS011;12820;51.580;5.010;2024-03-06T01:22:37;45.15;;;31.05;;
24713;SDS011;12820;51.580;5.010;2024-03-06T01:27:39;45.03;;;30.27;;
24713;SDS011;12820;51.580;5.010;2024-03-06T01:32:41;40.67;;;27.95;;
24713;SDS011;12820;51.580;5.010;2024-03-06T01:37:43;41.30;;;29.25;;
24713;SDS011;12820;51.580;5.010;2024-03-06T01:42:46;38.53;;;28.52;;
24713;SDS011;12820;51.580;5.010;2024-03-06T01:47:50;45.60;;;31.27;;
24713;SDS011;12820;51.580;5.010;2024-03-06T01:52:52;55.45;;;34.67;;
24713;SDS011;12820;51.580;5.010;2024-03-06T01:57:55;51.40;;;32.85;;
24713;SDS011;12820;51.580;5.010;2024-03-06T02:02:57;45.55;;;30.63;;
24713;SDS011;12820;51.580;5.010;2024-03-06T02:07:59;43.03;;;29.88;;
24713;SDS011;12820;51.580;5.010;2024-03-06T02:13:02;43.30;;;29.10;;
24713;SDS011;12820;51.580;5.010;2024-03-06T02:18:04;42.67;;;29.88;;
24713;SDS011;12820;51.580;5.010;2024-03-06T02:23:08;40.80;;;29.80;;
24713;SDS011;12820;51.580;5.010;2024-03-06T02:28:10;42.75;;;29.48;;
24713;SDS011;12820;51.580;5.010;2024-03-06T02:33:12;41.92;;;29.17;;
24713;SDS011;12820;51.580;5.010;2024-03-06T02:38:15;40.22;;;30.02;;
24713;SDS011;12820;51.580;5.010;2024-03-06T02:43:18;42.97;;;31.42;;
24713;SDS011;12820;51.580;5.010;2024-03-06T02:48:20;44.30;;;30.92;;
24713;SDS011;12820;51.580;5.010;2024-03-06T02:53:22;43.60;;;31.42;;
24713;SDS011;12820;51.580;5.010;2024-03-06T02:58:24;48.35;;;31.52;;
24713;SDS011;12820;51.580;5.010;2024-03-06T03:03:26;48.22;;;31.80;;
24713;SDS011;12820;51.580;5.010;2024-03-06T03:08:28;48.65;;;32.42;;
24713;SDS011;12820;51.580;5.010;2024-03-06T03:13:30;47.22;;;32.30;;
24713;SDS011;12820;51.580;5.010;2024-03-06T03:18:33;49.47;;;32.72;;
24713;SDS011;12820;51.580;5.010;2024-03-06T03:23:38;49.35;;;32.97;;
24713;SDS011;12820;51.580;5.010;2024-03-06T03:28:41;45.80;;;33.17;;
24713;SDS011;12820;51.580;5.010;2024-03-06T03:33:43;52.08;;;33.65;;
24713;SDS011;12820;51.580;5.010;2024-03-06T03:38:45;48.90;;;34.17;;
24713;SDS011;12820;51.580;5.010;2024-03-06T03:43:48;46.50;;;32.22;;
24713;SDS011;12820;51.580;5.010;2024-03-06T03:48:51;47.22;;;31.88;;
24713;SDS011;12820;51.580;5.010;2024-03-06T03:53:53;44.30;;;31.23;;
24713;SDS011;12820;51.580;5.010;2024-03-06T03:58:56;45.88;;;30.27;;
24713;SDS011;12820;51.580;5.010;2024-03-06T04:04:02;44.75;;;30.65;;
24713;SDS011;12820;51.580;5.010;2024-03-06T04:09:04;42.88;;;30.65;;
24713;SDS011;12820;51.580;5.010;2024-03-06T04:14:06;52.08;;;32.78;;
24713;SDS011;12820;51.580;5.010;2024-03-06T04:19:09;50.83;;;33.30;;
24713;SDS011;12820;51.580;5.010;2024-03-06T04:24:11;45.03;;;31.05;;
24713;SDS011;12820;51.580;5.010;2024-03-06T04:29:13;42.95;;;31.23;;
24713;SDS011;12820;51.580;5.010;2024-03-06T04:34:16;42.13;;;29.83;;
24713;SDS011;12820;51.580;5.010;2024-03-06T04:39:18;42.38;;;29.52;;
24713;SDS011;12820;51.580;5.010;2024-03-06T04:44:20;43.03;;;30.20;;
24713;SDS011;12820;51.580;5.010;2024-03-06T04:49:22;44.65;;;30.63;;
24713;SDS011;12820;51.580;5.010;2024-03-06T04:54:24;41.30;;;29.58;;
24713;SDS011;12820;51.580;5.010;2024-03-06T04:59:26;44.17;;;30.77;;
24713;SDS011;12820;51.580;5.010;2024-03-06T05:04:28;45.22;;;30.23;;
24713;SDS011;12820;51.580;5.010;2024-03-06T05:09:48;41.03;;;27.80;;
24713;SDS011;12820;51.580;5.010;2024-03-06T05:15:10;43.78;;;28.92;;
24713;SDS011;12820;51.580;5.010;2024-03-06T05:20:30;41.15;;;28.33;;
24713;SDS011;12820;51.580;5.010;2024-03-06T05:25:50;38.22;;;28.27;;
24713;SDS011;12820;51.580;5.010;2024-03-06T05:31:16;44.33;;;29.27;;
24713;SDS011;12820;51.580;5.010;2024-03-06T05:36:39;41.83;;;28.40;;
24713;SDS011;12820;51.580;5.010;2024-03-06T05:42:00;42.65;;;30.23;;
24713;SDS011;12820;51.580;5.010;2024-03-06T05:47:22;40.65;;;28.73;;
24713;SDS011;12820;51.580;5.010;2024-03-06T05:52:41;36.05;;;26.13;;
24713;SDS011;12820;51.580;5.010;2024-03-06T05:58:00;40.88;;;28.38;;
24713;SDS011;12820;51.580;5.010;2024-03-06T06:03:16;44.30;;;30.27;;
24713;SDS011;12820;51.580;5.010;2024-03-06T06:08:19;53.25;;;30.08;;
24713;SDS011;12820;51.580;5.010;2024-03-06T06:13:21;49.67;;;31.02;;
24713;SDS011;12820;51.580;5.010;2024-03-06T06:18:24;43.47;;;28.85;;
24713;SDS011;12820;51.580;5.010;2024-03-06T06:23:26;46.08;;;30.25;;
24713;SDS011;12820;51.580;5.010;2024-03-06T06:28:28;42.38;;;29.92;;
24713;SDS011;12820;51.580;5.010;2024-03-06T06:33:30;40.42;;;29.35;;
24713;SDS011;12820;51.580;5.010;2024-03-06T06:38:32;43.13;;;29.48;;
24713;SDS011;12820;51.580;5.010;2024-03-06T06:43:35;40.80;;;28.75;;
24713;SDS011;12820;51.580;5.010;2024-03-06T06:48:37;43.13;;;27.83;;
24713;SDS011;12820;51.580;5.010;2024-03-06T06:53:39;37.88;;;27.15;;
24713;SDS011;12820;51.580;5.010;2024-03-06T06:58:44;40.05;;;27.38;;
24713;SDS011;12820;51.580;5.010;2024-03-06T07:03:46;40.35;;;28.83;;
24713;SDS011;12820;51.580;5.010;2024-03-06T07:08:48;38.95;;;28.33;;
24713;SDS011;12820;51.580;5.010;2024-03-06T07:13:52;43.58;;;29.90;;
24713;SDS011;12820;51.580;5.010;2024-03-06T07:18:54;41.90;;;28.70;;
24713;SDS011;12820;51.580;5.010;2024-03-06T07:23:56;41.35;;;26.55;;
24713;SDS011;12820;51.580;5.010;2024-03-06T07:28:59;41.15;;;29.33;;
24713;SDS011;12820;51.580;5.010;2024-03-06T07:34:03;39.60;;;29.52;;
24713;SDS011;12820;51.580;5.010;2024-03-06T07:39:05;38.10;;;27.35;;
24713;SDS011;12820;51.580;5.010;2024-03-06T07:44:08;43.08;;;31.70;;
24713;SDS011;12820;51.580;5.010;2024-03-06T07:49:10;39.78;;;28.25;;
24713;SDS011;12820;51.580;5.010;2024-03-06T07:54:13;54.22;;;34.03;;
24713;SDS011;12820;51.580;5.010;2024-03-06T07:59:15;43.63;;;29.52;;
24713;SDS011;12820;51.580;5.010;2024-03-06T08:04:19;47.90;;;31.23;;
24713;SDS011;12820;51.580;5.010;2024-03-06T08:09:21;48.30;;;32.67;;
24713;SDS011;12820;51.580;5.010;2024-03-06T08:14:25;45.75;;;31.17;;
24713;SDS011;12820;51.580;5.010;2024-03-06T08:19:27;45.78;;;30.98;;
24713;SDS011;12820;51.580;5.010;2024-03-06T08:24:29;45.83;;;29.75;;
24713;SDS011;12820;51.580;5.010;2024-03-06T08:29:31;47.42;;;32.30;;
24713;SDS011;12820;51.580;5.010;2024-03-06T08:34:33;46.53;;;30.88;;
24713;SDS011;12820;51.580;5.010;2024-03-06T08:39:36;46.35;;;31.25;;
24713;SDS011;12820;51.580;5.010;2024-03-06T08:44:38;50.42;;;31.50;;
24713;SDS011;12820;51.580;5.010;2024-03-06T08:49:40;46.25;;;30.52;;
24713;SDS011;12820;51.580;5.010;2024-03-06T08:54:43;51.40;;;31.73;;
24713;SDS011;12820;51.580;5.010;2024-03-06T08:59:49;55.40;;;31.67;;
24713;SDS011;12820;51.580;5.010;2024-03-06T09:04:53;48.47;;;30.98;;
24713;SDS011;12820;51.580;5.010;2024-03-06T09:09:55;49.17;;;29.98;;
24713;SDS011;12820;51.580;5.010;2024-03-06T09:14:58;43.72;;;28.85;;
24713;SDS011;12820;51.580;5.010;2024-03-06T09:20:02;39.40;;;26.35;;
24713;SDS011;12820;51.580;5.010;2024-03-06T09:25:13;38.72;;;25.48;;
24713;SDS011;12820;51.580;5.010;2024-03-06T09:30:17;36.58;;;24.30;;
24713;SDS011;12820;51.580;5.010;2024-03-06T09:35:19;32.08;;;21.27;;
24713;SDS011;12820;51.580;5.010;2024-03-06T09:40:22;26.23;;;19.00;;
24713;SDS011;12820;51.580;5.010;2024-03-06T09:45:25;24.58;;;17.65;;
24713;SDS011;12820;51.580;5.010;2024-03-06T09:50:27;28.15;;;16.95;;
24713;SDS011;12820;51.580;5.010;2024-03-06T09:55:31;25.33;;;16.90;;
24713;SDS011;12820;51.580;5.010;2024-03-06T10:00:35;23.65;;;15.40;;
24713;SDS011;12820;51.580;5.010;2024-03-06T10:05:38;20.58;;;14.98;;
24713;SDS011;12820;51.580;5.010;2024-03-06T10:10:41;22.27;;;14.02;;
24713;SDS011;12820;51.580;5.010;2024-03-06T10:15:59;17.63;;;13.07;;
24713;SDS011;12820;51.580;5.010;2024-03-06T10:21:02;19.40;;;13.50;;
24713;SDS011;12820;51.580;5.010;2024-03-06T10:26:06;17.27;;;13.57;;
24713;SDS011;12820;51.580;5.010;2024-03-06T10:31:10;19.90;;;14.63;;
24713;SDS011;12820;51.580;5.010;2024-03-06T10:36:12;19.23;;;14.75;;
24713;SDS011;12820;51.580;5.010;2024-03-06T10:41:14;15.80;;;12.73;;
24713;SDS011;12820;51.580;5.010;2024-03-06T10:46:20;16.98;;;13.48;;
24713;SDS011;12820;51.580;5.010;2024-03-06T10:51:22;17.25;;;13.48;;
24713;SDS011;12820;51.580;5.010;2024-03-06T10:56:25;18.00;;;13.55;;
24713;SDS011;12820;51.580;5.010;2024-03-06T11:01:27;17.67;;;13.50;;
24713;SDS011;12820;51.580;5.010;2024-03-06T11:06:34;16.20;;;13.43;;
24713;SDS011;12820;51.580;5.010;2024-03-06T11:11:46;16.45;;;13.20;;
24713;SDS011;12820;51.580;5.010;2024-03-06T11:17:01;15.25;;;12.57;;
24713;SDS011;12820;51.580;5.010;2024-03-06T11:22:04;20.33;;;12.90;;
24713;SDS011;12820;51.580;5.010;2024-03-06T11:27:08;15.90;;;11.13;;
24713;SDS011;12820;51.580;5.010;2024-03-06T11:32:11;16.02;;;11.68;;
24713;SDS011;12820;51.580;5.010;2024-03-06T11:37:14;14.45;;;11.10;;
24713;SDS011;12820;51.580;5.010;2024-03-06T11:42:32;14.38;;;10.63;;
24713;SDS011;12820;51.580;5.010;2024-03-06T11:47:55;15.02;;;11.23;;
24713;SDS011;12820;51.580;5.010;2024-03-06T11:52:58;17.38;;;12.68;;
24713;SDS011;12820;51.580;5.010;2024-03-06T11:58:01;15.20;;;12.32;;
24713;SDS011;12820;51.580;5.010;2024-03-06T12:03:03;17.30;;;12.85;;
24713;SDS011;12820;51.580;5.010;2024-03-06T12:08:07;13.70;;;11.02;;
24713;SDS011;12820;51.580;5.010;2024-03-06T12:13:12;15.32;;;10.75;;
24713;SDS011;12820;51.580;5.010;2024-03-06T12:18:16;16.30;;;11.85;;
24713;SDS011;12820;51.580;5.010;2024-03-06T12:23:22;14.77;;;11.38;;
24713;SDS011;12820;51.580;5.010;2024-03-06T12:28:27;13.20;;;10.07;;
24713;SDS011;12820;51.580;5.010;2024-03-06T12:33:30;13.18;;;10.55;;
24713;SDS011;12820;51.580;5.010;2024-03-06T12:38:32;14.80;;;10.13;;
24713;SDS011;12820;51.580;5.010;2024-03-06T12:43:35;13.60;;;10.15;;
24713;SDS011;12820;51.580;5.010;2024-03-06T12:48:37;13.13;;;8.80;;
24713;SDS011;12820;51.580;5.010;2024-03-06T12:53:40;10.98;;;8.20;;
24713;SDS011;12820;51.580;5.010;2024-03-06T12:58:43;10.98;;;8.35;;
24713;SDS011;12820;51.580;5.010;2024-03-06T13:03:45;9.88;;;7.80;;
24713;SDS011;12820;51.580;5.010;2024-03-06T13:08:48;10.40;;;8.32;;
24713;SDS011;12820;51.580;5.010;2024-03-06T13:13:50;8.43;;;5.82;;
24713;SDS011;12820;51.580;5.010;2024-03-06T13:18:52;7.38;;;4.97;;
24713;SDS011;12820;51.580;5.010;2024-03-06T13:23:56;5.70;;;4.32;;
24713;SDS011;12820;51.580;5.010;2024-03-06T13:28:58;6.53;;;4.00;;
24713;SDS011;12820;51.580;5.010;2024-03-06T13:34:02;7.20;;;4.80;;
24713;SDS011;12820;51.580;5.010;2024-03-06T13:39:05;5.53;;;4.63;;
24713;SDS011;12820;51.580;5.010;2024-03-06T13:44:07;6.78;;;5.10;;
24713;SDS011;12820;51.580;5.010;2024-03-06T13:49:33;6.38;;;5.25;;
24713;SDS011;12820;51.580;5.010;2024-03-06T13:54:37;7.38;;;5.20;;
24713;SDS011;12820;51.580;5.010;2024-03-06T13:59:41;7.50;;;5.80;;
24713;SDS011;12820;51.580;5.010;2024-03-06T14:04:44;7.70;;;5.55;;
24713;SDS011;12820;51.580;5.010;2024-03-06T14:09:47;8.98;;;6.30;;
24713;SDS011;12820;51.580;5.010;2024-03-06T14:14:49;9.40;;;6.20;;
24713;SDS011;12820;51.580;5.010;2024-03-06T14:19:51;9.68;;;6.43;;
24713;SDS011;12820;51.580;5.010;2024-03-06T14:24:54;9.07;;;6.43;;
24713;SDS011;12820;51.580;5.010;2024-03-06T14:29:57;7.90;;;5.75;;
24713;SDS011;12820;51.580;5.010;2024-03-06T14:35:00;6.63;;;5.47;;
24713;SDS011;12820;51.580;5.010;2024-03-06T14:40:02;7.72;;;5.70;;
24713;SDS011;12820;51.580;5.010;2024-03-06T14:45:10;9.23;;;6.03;;
24713;SDS011;12820;51.580;5.010;2024-03-06T14:50:13;7.65;;;5.93;;
24713;SDS011;12820;51.580;5.010;2024-03-06T14:55:15;7.25;;;6.35;;
24713;SDS011;12820;51.580;5.010;2024-03-06T15:00:18;7.60;;;6.40;;
24713;SDS011;12820;51.580;5.010;2024-03-06T15:05:23;10.90;;;7.47;;
24713;SDS011;12820;51.580;5.010;2024-03-06T15:10:25;8.02;;;6.18;;
24713;SDS011;12820;51.580;5.010;2024-03-06T15:15:27;7.90;;;5.70;;
24713;SDS011;12820;51.580;5.010;2024-03-06T15:20:29;7.40;;;6.03;;
24713;SDS011;12820;51.580;5.010;2024-03-06T15:25:31;8.82;;;6.68;;
24713;SDS011;12820;51.580;5.010;2024-03-06T15:30:33;9.15;;;6.10;;
24713;SDS011;12820;51.580;5.010;2024-03-06T15:35:37;8.43;;;5.82;;
24713;SDS011;12820;51.580;5.010;2024-03-06T15:40:39;7.22;;;5.97;;
24713;SDS011;12820;51.580;5.010;2024-03-06T15:45:41;8.30;;;6.38;;
24713;SDS011;12820;51.580;5.010;2024-03-06T15:50:43;9.05;;;6.50;;
24713;SDS011;12820;51.580;5.010;2024-03-06T15:55:46;9.98;;;7.50;;
24713;SDS011;12820;51.580;5.010;2024-03-06T16:00:48;12.48;;;7.35;;
24713;SDS011;12820;51.580;5.010;2024-03-06T16:05:50;9.77;;;8.02;;
24713;SDS011;12820;51.580;5.010;2024-03-06T16:11:00;12.18;;;9.73;;
24713;SDS011;12820;51.580;5.010;2024-03-06T16:16:03;18.10;;;13.05;;
24713;SDS011;12820;51.580;5.010;2024-03-06T16:21:06;24.10;;;15.13;;
24713;SDS011;12820;51.580;5.010;2024-03-06T16:26:09;22.45;;;16.10;;
24713;SDS011;12820;51.580;5.010;2024-03-06T16:31:12;23.05;;;16.67;;
24713;SDS011;12820;51.580;5.010;2024-03-06T16:36:15;22.02;;;16.08;;
24713;SDS011;12820;51.580;5.010;2024-03-06T16:41:18;25.73;;;17.63;;
24713;SDS011;12820;51.580;5.010;2024-03-06T16:46:20;27.88;;;19.65;;
24713;SDS011;12820;51.580;5.010;2024-03-06T16:51:22;28.52;;;20.17;;
24713;SDS011;12820;51.580;5.010;2024-03-06T16:56:24;31.13;;;18.95;;
24713;SDS011;12820;51.580;5.010;2024-03-06T17:01:27;26.25;;;18.42;;
24713;SDS011;12820;51.580;5.010;2024-03-06T17:06:29;24.45;;;17.50;;
24713;SDS011;12820;51.580;5.010;2024-03-06T17:11:31;23.73;;;17.30;;
24713;SDS011;12820;51.580;5.010;2024-03-06T17:16:33;25.15;;;16.80;;
24713;SDS011;12820;51.580;5.010;2024-03-06T17:21:36;21.05;;;16.10;;
24713;SDS011;12820;51.580;5.010;2024-03-06T17:26:39;26.13;;;16.45;;
24713;SDS011;12820;51.580;5.010;2024-03-06T17:31:42;22.48;;;16.67;;
24713;SDS011;12820;51.580;5.010;2024-03-06T17:36:44;23.40;;;16.70;;
24713;SDS011;12820;51.580;5.010;2024-03-06T17:41:48;26.15;;;17.63;;
24713;SDS011;12820;51.580;5.010;2024-03-06T17:46:50;27.00;;;18.48;;
24713;SDS011;12820;51.580;5.010;2024-03-06T17:51:53;26.83;;;17.38;;
24713;SDS011;12820;51.580;5.010;2024-03-06T17:56:59;24.92;;;17.60;;
24713;SDS011;12820;51.580;5.010;2024-03-06T18:02:02;25.17;;;18.27;;
24713;SDS011;12820;51.580;5.010;2024-03-06T18:07:04;27.50;;;17.52;;
24713;SDS011;12820;51.580;5.010;2024-03-06T18:12:06;26.67;;;18.63;;
24713;SDS011;12820;51.580;5.010;2024-03-06T18:17:09;26.45;;;18.50;;
24713;SDS011;12820;51.580;5.010;2024-03-06T18:22:11;27.73;;;19.88;;
24713;SDS011;12820;51.580;5.010;2024-03-06T18:27:13;30.60;;;21.67;;
24713;SDS011;12820;51.580;5.010;2024-03-06T18:32:15;31.52;;;21.50;;
24713;SDS011;12820;51.580;5.010;2024-03-06T18:37:18;35.97;;;22.70;;
24713;SDS011;12820;51.580;5.010;2024-03-06T18:42:20;34.35;;;23.05;;
24713;SDS011;12820;51.580;5.010;2024-03-06T18:47:23;35.80;;;24.67;;
24713;SDS011;12820;51.580;5.010;2024-03-06T18:52:25;38.88;;;25.27;;
24713;SDS011;12820;51.580;5.010;2024-03-06T18:57:27;39.67;;;26.25;;
24713;SDS011;12820;51.580;5.010;2024-03-06T19:02:30;41.58;;;25.58;;
24713;SDS011;12820;51.580;5.010;2024-03-06T19:07:33;39.65;;;27.17;;
24713;SDS011;12820;51.580;5.010;2024-03-06T19:12:35;42.90;;;27.67;;
24713;SDS011;12820;51.580;5.010;2024-03-06T19:17:37;49.05;;;32.45;;
24713;SDS011;12820;51.580;5.010;2024-03-06T19:22:40;52.95;;;33.22;;
24713;SDS011;12820;51.580;5.010;2024-03-06T19:27:43;52.05;;;32.85;;
24713;SDS011;12820;51.580;5.010;2024-03-06T19:32:45;46.45;;;28.67;;
24713;SDS011;12820;51.580;5.010;2024-03-06T19:37:56;45.47;;;28.67;;
24713;SDS011;12820;51.580;5.010;2024-03-06T19:42:58;46.88;;;29.08;;
24713;SDS011;12820;51.580;5.010;2024-03-06T19:48:00;47.78;;;29.30;;
24713;SDS011;12820;51.580;5.010;2024-03-06T19:53:03;57.92;;;34.40;;
24713;SDS011;12820;51.580;5.010;2024-03-06T19:58:05;58.83;;;34.75;;
24713;SDS011;12820;51.580;5.010;2024-03-06T20:03:07;56.20;;;32.97;;
24713;SDS011;12820;51.580;5.010;2024-03-06T20:08:09;49.47;;;31.10;;
24713;SDS011;12820;51.580;5.010;2024-03-06T20:13:12;52.63;;;31.30;;
24713;SDS011;12820;51.580;5.010;2024-03-06T20:18:15;50.17;;;31.08;;
24713;SDS011;12820;51.580;5.010;2024-03-06T20:23:17;51.28;;;31.95;;
24713;SDS011;12820;51.580;5.010;2024-03-06T20:28:19;57.92;;;34.95;;
24713;SDS011;12820;51.580;5.010;2024-03-06T20:33:22;57.28;;;34.72;;
24713;SDS011;12820;51.580;5.010;2024-03-06T20:38:25;61.03;;;34.58;;
24713;SDS011;12820;51.580;5.010;2024-03-06T20:43:27;57.67;;;34.58;;
24713;SDS011;12820;51.580;5.010;2024-03-06T20:48:29;56.35;;;33.42;;
24713;SDS011;12820;51.580;5.010;2024-03-06T20:53:32;55.30;;;33.42;;
24713;SDS011;12820;51.580;5.010;2024-03-06T20:58:34;53.90;;;32.00;;
24713;SDS011;12820;51.580;5.010;2024-03-06T21:03:37;57.28;;;32.95;;
24713;SDS011;12820;51.580;5.010;2024-03-06T21:08:40;57.55;;;32.25;;
24713;SDS011;12820;51.580;5.010;2024-03-06T21:13:42;56.67;;;33.47;;
24713;SDS011;12820;51.580;5.010;2024-03-06T21:18:45;57.03;;;33.60;;
24713;SDS011;12820;51.580;5.010;2024-03-06T21:23:47;60.65;;;32.88;;
24713;SDS011;12820;51.580;5.010;2024-03-06T21:28:50;58.47;;;32.78;;
24713;SDS011;12820;51.580;5.010;2024-03-06T21:33:55;59.72;;;34.10;;
24713;SDS011;12820;51.580;5.010;2024-03-06T21:39:00;63.95;;;34.88;;
24713;SDS011;12820;51.580;5.010;2024-03-06T21:44:06;65.13;;;36.83;;
24713;SDS011;12820;51.580;5.010;2024-03-06T21:49:08;60.63;;;34.70;;
24713;SDS011;12820;51.580;5.010;2024-03-06T21:54:11;66.53;;;35.63;;
24713;SDS011;12820;51.580;5.010;2024-03-06T21:59:13;64.22;;;35.53;;
24713;SDS011;12820;51.580;5.010;2024-03-06T22:04:15;67.90;;;38.95;;
24713;SDS011;12820;51.580;5.010;2024-03-06T22:09:18;63.03;;;36.33;;
24713;SDS011;12820;51.580;5.010;2024-03-06T22:14:20;69.43;;;38.13;;
24713;SDS011;12820;51.580;5.010;2024-03-06T22:19:22;64.43;;;35.72;;
24713;SDS011;12820;51.580;5.010;2024-03-06T22:24:24;73.10;;;36.80;;
24713;SDS011;12820;51.580;5.010;2024-03-06T22:29:26;66.15;;;37.20;;
24713;SDS011;12820;51.580;5.010;2024-03-06T22:34:29;66.95;;;38.33;;
24713;SDS011;12820;51.580;5.010;2024-03-06T22:39:31;69.57;;;38.90;;
24713;SDS011;12820;51.580;5.010;2024-03-06T22:44:33;71.03;;;38.70;;
24713;SDS011;12820;51.580;5.010;2024-03-06T22:49:39;69.63;;;38.25;;
24713;SDS011;12820;51.580;5.010;2024-03-06T22:54:42;69.60;;;37.97;;
24713;SDS011;12820;51.580;5.010;2024-03-06T22:59:44;66.45;;;38.08;;
24713;SDS011;12820;51.580;5.010;2024-03-06T23:04:46;62.72;;;36.42;;
24713;SDS011;12820;51.580;5.010;2024-03-06T23:09:48;73.13;;;39.15;;
24713;SDS011;12820;51.580;5.010;2024-03-06T23:14:51;67.65;;;37.22;;
24713;SDS011;12820;51.580;5.010;2024-03-06T23:19:54;65.72;;;36.75;;
24713;SDS011;12820;51.580;5.010;2024-03-06T23:24:56;64.97;;;37.15;;
24713;SDS011;12820;51.580;5.010;2024-03-06T23:29:59;65.03;;;36.05;;
24713;SDS011;12820;51.580;5.010;2024-03-06T23:35:01;71.35;;;40.15;;
24713;SDS011;12820;51.580;5.010;2024-03-06T23:40:12;68.57;;;36.97;;
24713;SDS011;12820;51.580;5.010;2024-03-06T23:45:16;66.57;;;37.53;;
24713;SDS011;12820;51.580;5.010;2024-03-06T23:50:18;67.57;;;38.63;;
24713;SDS011;12820;51.580;5.010;2024-03-06T23:55:22;72.40;;;39.72;;
